createdAt,value
2019-03-15T00:00:35.999Z,2.33
2019-03-15T00:03:07.338Z,4.23
2019-03-15T00:05:38.565Z,2.63
2019-03-15T00:08:10.950Z,3.60
2019-03-15T00:10:42.056Z,2.03
2019-03-15T00:13:13.192Z,4.53
2019-03-15T00:15:44.394Z,1.77
2019-03-15T00:18:16.726Z,2.97
2019-03-15T00:20:47.991Z,5.70
2019-03-15T00:23:19.072Z,1.20
2019-03-15T00:25:50.242Z,2.40
2019-03-15T00:28:21.756Z,2.80
2019-03-15T00:30:53.095Z,2.60
2019-03-15T00:33:24.545Z,2.90
2019-03-15T00:35:56.212Z,1.73
2019-03-15T00:38:27.290Z,2.00
2019-03-15T00:40:58.919Z,4.77
2019-03-15T00:43:30.149Z,2.70
2019-03-15T00:46:01.501Z,2.90
2019-03-15T00:48:32.804Z,4.07
2019-03-15T00:51:04.020Z,3.27
2019-03-15T00:53:35.182Z,4.30
2019-03-15T00:56:06.384Z,2.10
2019-03-15T00:58:37.547Z,4.70
2019-03-15T01:01:08.798Z,3.53
2019-03-15T01:03:40.152Z,8.10
2019-03-15T01:06:11.477Z,2.33
2019-03-15T01:08:42.640Z,4.17
2019-03-15T01:11:13.841Z,5.70
2019-03-15T01:13:45.125Z,5.23
2019-03-15T01:16:16.347Z,3.43
2019-03-15T01:18:47.423Z,8.50
2019-03-15T01:21:18.729Z,5.13
2019-03-15T01:23:49.875Z,6.67
2019-03-15T01:26:20.964Z,4.43
2019-03-15T01:28:52.122Z,4.60
2019-03-15T01:31:23.319Z,3.00
2019-03-15T01:33:54.562Z,4.50
2019-03-15T01:36:25.652Z,8.00
2019-03-15T01:38:56.961Z,15.37
2019-03-15T01:41:28.601Z,9.97
2019-03-15T01:44:00.027Z,4.00
2019-03-15T01:46:31.181Z,4.50
2019-03-15T01:49:02.410Z,2.00
2019-03-15T01:51:33.664Z,2.20
2019-03-15T01:54:04.940Z,2.90
2019-03-15T01:56:36.133Z,3.30
2019-03-15T01:59:07.215Z,1.93
2019-03-15T02:01:38.777Z,3.20
2019-03-15T02:04:09.941Z,5.20
2019-03-15T02:06:41.195Z,2.83
2019-03-15T02:09:12.350Z,8.10
2019-03-15T02:11:43.519Z,6.97
2019-03-15T02:14:14.585Z,6.53
2019-03-15T02:16:46.111Z,3.90
2019-03-15T02:19:17.259Z,4.67
2019-03-15T02:21:48.607Z,3.53
2019-03-15T02:24:20.030Z,6.83
2019-03-15T02:26:51.238Z,4.03
2019-03-15T02:29:22.719Z,7.37
2019-03-15T02:31:54.473Z,3.57
2019-03-15T02:34:27.272Z,4.47
2019-03-15T02:36:58.658Z,6.10
2019-03-15T02:39:29.880Z,9.93
2019-03-15T02:42:01.019Z,8.03
2019-03-15T02:44:32.087Z,3.90
2019-03-15T02:47:03.200Z,5.13
2019-03-15T02:49:34.941Z,7.73
2019-03-15T02:52:06.779Z,3.57
2019-03-15T02:54:38.578Z,10.00
2019-03-15T02:57:09.780Z,2.70
2019-03-15T02:59:40.874Z,10.67
2019-03-15T03:02:12.033Z,17.30
2019-03-15T03:04:43.356Z,4.37
2019-03-15T03:07:14.562Z,8.70
2019-03-15T03:09:46.896Z,12.13
2019-03-15T03:12:18.261Z,6.03
2019-03-15T03:14:49.626Z,4.17
2019-03-15T03:17:20.940Z,4.70
2019-03-15T03:19:52.297Z,4.50
2019-03-15T03:22:23.408Z,5.33
2019-03-15T03:24:54.609Z,3.63
2019-03-15T03:27:25.786Z,3.40
2019-03-15T03:29:56.966Z,6.10
2019-03-15T03:32:28.087Z,8.13
2019-03-15T03:34:59.330Z,12.60
2019-03-15T03:37:30.632Z,6.10
2019-03-15T03:40:02.587Z,4.97
2019-03-15T03:42:34.168Z,7.90
2019-03-15T03:45:06.214Z,5.40
2019-03-15T03:47:37.414Z,5.80
2019-03-15T03:50:09.314Z,6.97
2019-03-15T03:52:41.970Z,8.53
2019-03-15T03:55:13.615Z,6.50
2019-03-15T03:57:46.029Z,3.53
2019-03-15T04:00:18.470Z,10.90
2019-03-15T04:02:53.101Z,10.07
2019-03-15T04:05:23.919Z,8.63
2019-03-15T04:07:55.935Z,10.60
2019-03-15T04:10:27.109Z,7.70
2019-03-15T04:12:58.451Z,5.13
2019-03-15T04:15:29.709Z,3.80
2019-03-15T04:18:00.867Z,2.37
2019-03-15T04:20:32.061Z,6.47
2019-03-15T04:23:04.298Z,11.60
2019-03-15T04:25:36.303Z,6.23
2019-03-15T04:28:07.530Z,11.50
2019-03-15T04:30:38.744Z,6.30
2019-03-15T04:33:10.097Z,6.50
2019-03-15T04:35:41.271Z,9.57
2019-03-15T04:38:12.452Z,4.80
2019-03-15T04:40:43.655Z,5.13
2019-03-15T04:43:14.856Z,4.97
2019-03-15T04:45:46.007Z,2.33
2019-03-15T04:48:17.191Z,11.17
2019-03-15T04:50:48.503Z,13.03
2019-03-15T04:53:19.654Z,11.17
2019-03-15T04:55:50.735Z,8.40
2019-03-15T04:58:21.970Z,2.97
2019-03-15T05:00:53.174Z,12.43
2019-03-15T05:03:24.383Z,6.37
2019-03-15T05:06:03.255Z,5.17
2019-03-15T05:08:28.450Z,10.53
2019-03-15T05:10:59.682Z,7.50
2019-03-15T05:13:30.872Z,4.40
2019-03-15T05:16:02.099Z,8.47
2019-03-15T05:18:33.265Z,10.03
2019-03-15T05:21:04.574Z,6.13
2019-03-15T05:23:35.860Z,3.80
2019-03-15T05:26:07.211Z,9.80
2019-03-15T05:28:38.389Z,7.43
2019-03-15T05:31:09.676Z,1.90
2019-03-15T05:33:40.841Z,11.00
2019-03-15T05:36:12.019Z,7.40
2019-03-15T05:38:43.281Z,4.50
2019-03-15T05:41:14.390Z,8.37
2019-03-15T05:43:45.691Z,7.40
2019-03-15T05:46:16.855Z,6.63
2019-03-15T05:48:48.049Z,6.33
2019-03-15T05:51:19.193Z,8.17
2019-03-15T05:53:50.462Z,10.23
2019-03-15T05:56:21.651Z,6.87
2019-03-15T05:58:53.810Z,10.17
2019-03-15T06:01:25.010Z,11.87
2019-03-15T06:03:56.335Z,7.00
2019-03-15T06:06:27.418Z,9.37
2019-03-15T06:08:58.555Z,10.17
2019-03-15T06:11:29.658Z,6.63
2019-03-15T06:14:00.842Z,8.90
2019-03-15T06:16:32.185Z,5.47
2019-03-15T06:19:03.255Z,6.70
2019-03-15T06:21:34.490Z,6.30
2019-03-15T06:24:05.732Z,6.40
2019-03-15T06:26:38.053Z,11.40
2019-03-15T06:29:09.353Z,9.63
2019-03-15T06:31:40.525Z,12.30
2019-03-15T06:34:11.989Z,7.20
2019-03-15T06:36:43.551Z,8.43
2019-03-15T06:39:15.080Z,10.23
2019-03-15T06:41:46.322Z,9.70
2019-03-15T06:44:17.569Z,10.20
2019-03-15T06:46:48.654Z,8.40
2019-03-15T06:49:21.099Z,6.97
2019-03-15T06:51:52.483Z,8.93
2019-03-15T06:54:23.877Z,9.10
2019-03-15T06:56:55.101Z,12.50
2019-03-15T06:59:26.212Z,14.83
2019-03-15T07:01:58.618Z,4.40
2019-03-15T07:04:29.853Z,9.57
2019-03-15T07:07:01.995Z,7.00
2019-03-15T07:09:33.089Z,7.80
2019-03-15T07:12:09.276Z,4.43
2019-03-15T07:14:38.351Z,3.03
2019-03-15T07:17:09.369Z,5.53
2019-03-15T07:19:40.733Z,6.70
2019-03-15T07:22:12.052Z,1.67
2019-03-15T07:24:43.963Z,4.33
2019-03-15T07:27:15.312Z,2.90
2019-03-15T07:29:46.636Z,7.30
2019-03-15T07:32:17.893Z,3.03
2019-03-15T07:34:49.128Z,2.03
2019-03-15T07:37:21.502Z,2.30
2019-03-15T07:39:53.973Z,4.73
2019-03-15T07:42:25.198Z,2.60
2019-03-15T07:44:56.372Z,3.13
2019-03-15T07:47:27.527Z,3.10
2019-03-15T07:49:58.788Z,1.77
2019-03-15T07:52:30.034Z,6.07
2019-03-15T07:55:01.144Z,1.97
2019-03-15T07:57:32.235Z,1.20
2019-03-15T08:00:03.790Z,5.03
2019-03-15T08:02:35.038Z,3.20
2019-03-15T08:05:06.972Z,3.17
2019-03-15T08:07:44.804Z,4.50
2019-03-15T08:10:11.219Z,2.87
2019-03-15T08:12:42.403Z,1.20
2019-03-15T08:15:13.664Z,5.03
2019-03-15T08:17:44.807Z,7.53
2019-03-15T08:20:16.176Z,2.03
2019-03-15T08:22:47.352Z,1.87
2019-03-15T08:25:18.541Z,3.20
2019-03-15T08:27:49.765Z,1.97
2019-03-15T08:30:21.009Z,1.73
2019-03-15T08:32:52.165Z,2.30
2019-03-15T08:35:24.734Z,1.80
2019-03-15T08:37:55.964Z,3.50
2019-03-15T08:40:27.126Z,2.90
2019-03-15T08:42:58.252Z,1.30
2019-03-15T08:45:29.590Z,1.33
2019-03-15T08:48:00.732Z,0.80
2019-03-15T08:50:31.972Z,6.53
2019-03-15T08:53:03.056Z,1.33
2019-03-15T08:55:34.207Z,1.73
2019-03-15T08:58:13.950Z,1.03
2019-03-15T09:00:38.233Z,1.10
2019-03-15T09:03:09.334Z,1.50
2019-03-15T09:05:40.511Z,2.30
2019-03-15T09:08:11.874Z,1.17
2019-03-15T09:10:43.041Z,0.70
2019-03-15T09:13:14.359Z,2.00
2019-03-15T09:15:45.568Z,3.13
2019-03-15T09:18:16.647Z,1.30
2019-03-15T09:20:47.734Z,1.30
2019-03-15T09:23:18.916Z,0.90
2019-03-15T09:25:50.070Z,1.60
2019-03-15T09:28:21.279Z,2.10
2019-03-15T09:30:52.911Z,2.77
2019-03-15T09:33:24.057Z,2.53
2019-03-15T09:35:55.245Z,1.30
2019-03-15T09:38:26.393Z,0.77
2019-03-15T09:40:57.583Z,1.10
2019-03-15T09:43:28.745Z,0.80
2019-03-15T09:45:59.905Z,0.80
2019-03-15T09:48:30.981Z,2.10
2019-03-15T09:51:02.163Z,1.27
2019-03-15T09:53:33.322Z,1.00
2019-03-15T09:56:04.494Z,1.40
2019-03-15T09:58:35.798Z,2.80
2019-03-15T10:01:07.807Z,2.20
2019-03-15T10:03:39.363Z,1.00
2019-03-15T10:06:15.629Z,0.80
2019-03-15T10:08:43.289Z,0.80
2019-03-15T10:11:14.436Z,1.30
2019-03-15T10:13:45.512Z,1.53
2019-03-15T10:16:16.646Z,0.70
2019-03-15T10:18:50.444Z,0.70
2019-03-15T10:21:20.599Z,0.80
2019-03-15T10:23:51.749Z,0.60
2019-03-15T10:26:23.000Z,1.27
2019-03-15T10:28:54.136Z,1.10
2019-03-15T10:31:26.704Z,1.10
2019-03-15T10:33:58.021Z,0.97
2019-03-15T10:36:29.459Z,0.83
2019-03-15T10:39:00.591Z,3.03
2019-03-15T10:41:32.033Z,0.83
2019-03-15T10:44:04.356Z,1.77
2019-03-15T10:46:35.574Z,6.40
2019-03-15T10:49:06.736Z,1.93
2019-03-15T10:51:37.987Z,2.03
2019-03-15T10:54:09.150Z,1.17
2019-03-15T10:56:40.318Z,1.80
2019-03-15T10:59:11.373Z,1.77
2019-03-15T11:01:42.612Z,0.80
2019-03-15T11:04:13.825Z,0.83
2019-03-15T11:06:45.012Z,2.40
2019-03-15T11:09:16.154Z,0.70
2019-03-15T11:11:47.354Z,2.30
2019-03-15T11:14:18.760Z,0.80
2019-03-15T11:16:49.927Z,1.03
2019-03-15T11:19:21.062Z,1.50
2019-03-15T11:21:52.309Z,2.03
2019-03-15T11:24:23.477Z,1.40
2019-03-15T11:26:54.598Z,0.80
2019-03-15T11:29:26.834Z,0.90
2019-03-15T11:31:58.116Z,0.80
2019-03-15T11:34:29.189Z,3.27
2019-03-15T11:37:03.292Z,1.07
2019-03-15T11:39:33.254Z,0.70
2019-03-15T11:42:04.606Z,2.10
2019-03-15T11:44:35.933Z,0.90
2019-03-15T11:47:07.173Z,0.70
2019-03-15T11:49:38.337Z,0.60
2019-03-15T11:52:09.590Z,1.47
2019-03-15T11:54:40.761Z,1.20
2019-03-15T11:57:12.036Z,2.87
2019-03-15T11:59:43.237Z,1.10
2019-03-15T12:02:14.323Z,1.17
2019-03-15T12:04:45.470Z,0.73
2019-03-15T12:07:16.639Z,0.70
2019-03-15T12:09:47.919Z,0.70
2019-03-15T12:12:21.756Z,2.00
2019-03-15T12:14:52.011Z,0.63
2019-03-15T12:17:23.114Z,1.03
2019-03-15T12:19:54.219Z,0.80
2019-03-15T12:22:25.402Z,0.70
2019-03-15T12:24:56.551Z,0.80
2019-03-15T12:27:27.758Z,1.87
2019-03-15T12:29:58.954Z,0.80
2019-03-15T12:32:30.310Z,1.40
2019-03-15T12:35:01.466Z,1.63
2019-03-15T12:37:32.563Z,1.17
2019-03-15T12:40:04.196Z,1.67
2019-03-15T12:42:35.274Z,6.57
2019-03-15T12:45:07.139Z,8.00
2019-03-15T12:47:38.456Z,2.77
2019-03-15T12:50:10.197Z,1.20
2019-03-15T12:52:47.721Z,0.80
2019-03-15T12:55:15.729Z,1.03
2019-03-15T12:57:49.258Z,1.30
2019-03-15T13:00:20.255Z,1.93
2019-03-15T13:02:51.428Z,0.70
2019-03-15T13:05:22.607Z,0.90
2019-03-15T13:07:53.723Z,0.70
2019-03-15T13:10:24.868Z,1.23
2019-03-15T13:12:56.147Z,0.70
2019-03-15T13:15:27.391Z,0.70
2019-03-15T13:17:58.543Z,0.70
2019-03-15T13:20:29.662Z,0.60
2019-03-15T13:23:00.847Z,1.37
2019-03-15T13:25:31.986Z,1.73
2019-03-15T13:28:03.179Z,0.60
2019-03-15T13:30:34.431Z,0.60
2019-03-15T13:33:19.124Z,0.60
2019-03-15T13:35:38.579Z,0.60
2019-03-15T13:38:09.769Z,2.97
2019-03-15T13:40:40.939Z,0.70
2019-03-15T13:43:12.252Z,0.70
2019-03-15T13:45:43.425Z,0.70
2019-03-15T13:48:14.664Z,0.80
2019-03-15T13:50:45.899Z,1.07
2019-03-15T13:53:17.080Z,2.77
2019-03-15T13:55:48.260Z,0.60
2019-03-15T13:58:19.422Z,0.73
2019-03-15T14:00:50.661Z,0.70
2019-03-15T14:03:21.917Z,2.70
2019-03-15T14:05:53.128Z,1.47
2019-03-15T14:08:24.272Z,0.60
2019-03-15T14:10:55.411Z,0.70
2019-03-15T14:13:26.513Z,2.10
2019-03-15T14:15:57.648Z,0.80
2019-03-15T14:18:28.925Z,0.70
2019-03-15T14:21:00.177Z,0.70
2019-03-15T14:23:31.276Z,1.87
2019-03-15T14:26:02.375Z,2.90
2019-03-15T14:28:33.670Z,0.90
2019-03-15T14:31:04.740Z,0.60
2019-03-15T14:33:35.901Z,1.20
2019-03-15T14:36:07.112Z,1.00
2019-03-15T14:38:38.525Z,0.77
2019-03-15T14:41:09.820Z,0.70
2019-03-15T14:43:41.011Z,0.67
2019-03-15T14:46:13.055Z,0.70
2019-03-15T14:48:44.134Z,2.20
2019-03-15T14:51:15.206Z,0.70
2019-03-15T14:53:46.372Z,0.70
2019-03-15T14:56:17.470Z,0.67
2019-03-15T14:58:48.683Z,0.80
2019-03-15T15:01:19.859Z,1.17
2019-03-15T15:03:51.063Z,0.70
2019-03-15T15:06:22.462Z,1.77
2019-03-15T15:08:53.675Z,0.80
2019-03-15T15:11:25.876Z,0.70
2019-03-15T15:13:58.323Z,0.70
2019-03-15T15:16:30.521Z,1.47
2019-03-15T15:19:01.696Z,1.17
2019-03-15T15:21:32.836Z,1.13
2019-03-15T15:24:04.104Z,3.90
2019-03-15T15:26:35.219Z,0.70
2019-03-15T15:29:06.464Z,0.70
2019-03-15T15:31:37.776Z,1.27
2019-03-15T15:34:09.016Z,0.77
2019-03-15T15:36:40.157Z,0.70
2019-03-15T15:39:11.326Z,1.27
2019-03-15T15:41:42.495Z,0.60
2019-03-15T15:44:13.687Z,2.73
2019-03-15T15:46:44.910Z,0.70
2019-03-15T15:49:16.164Z,2.53
2019-03-15T15:51:47.802Z,1.13
2019-03-15T15:54:19.026Z,0.90
2019-03-15T15:56:51.100Z,0.70
2019-03-15T15:59:22.361Z,2.13
2019-03-15T16:01:53.428Z,0.70
2019-03-15T16:04:24.959Z,0.70
2019-03-15T16:06:56.110Z,0.70
2019-03-15T16:09:27.291Z,0.80
2019-03-15T16:11:58.471Z,0.70
2019-03-15T16:14:29.560Z,1.53
2019-03-15T16:17:00.763Z,0.80
2019-03-15T16:19:31.939Z,1.47
2019-03-15T16:22:03.088Z,1.77
2019-03-15T16:24:34.272Z,0.87
2019-03-15T16:27:05.528Z,0.70
2019-03-15T16:29:36.615Z,1.77
2019-03-15T16:32:07.848Z,0.70
2019-03-15T16:34:39.032Z,1.23
2019-03-15T16:37:10.371Z,0.70
2019-03-15T16:39:41.437Z,0.80
2019-03-15T16:42:12.722Z,0.80
2019-03-15T16:44:43.838Z,0.60
2019-03-15T16:47:15.062Z,0.97
2019-03-15T16:49:46.473Z,1.30
2019-03-15T16:52:17.579Z,1.80
2019-03-15T16:54:48.753Z,0.70
2019-03-15T16:57:19.928Z,0.70
2019-03-15T16:59:51.279Z,2.33
2019-03-15T17:02:22.449Z,0.90
2019-03-15T17:04:53.562Z,1.07
2019-03-15T17:07:24.729Z,0.70
2019-03-15T17:09:56.875Z,1.80
2019-03-15T17:12:28.026Z,0.70
2019-03-15T17:14:59.356Z,2.67
2019-03-15T17:17:30.539Z,1.57
2019-03-15T17:20:01.727Z,1.40
2019-03-15T17:22:32.900Z,1.00
2019-03-15T17:25:04.324Z,1.07
2019-03-15T17:27:36.531Z,1.60
2019-03-15T17:30:10.421Z,2.20
2019-03-15T17:32:41.666Z,0.80
2019-03-15T17:35:13.296Z,0.73
2019-03-15T17:37:44.671Z,5.23
2019-03-15T17:40:16.037Z,1.43
2019-03-15T17:42:47.190Z,0.80
2019-03-15T17:45:18.623Z,0.80
2019-03-15T17:47:50.224Z,0.90
2019-03-15T17:50:21.400Z,1.17
2019-03-15T17:52:52.638Z,0.90
2019-03-15T17:55:23.887Z,0.70
2019-03-15T17:57:55.054Z,0.83
2019-03-15T18:00:33.679Z,0.70
2019-03-15T18:03:19.118Z,1.00
2019-03-15T18:05:38.699Z,1.77
2019-03-15T18:08:09.936Z,0.80
2019-03-15T18:10:41.195Z,1.77
2019-03-15T18:13:12.336Z,1.13
2019-03-15T18:15:43.568Z,0.70
2019-03-15T18:18:14.836Z,0.70
2019-03-15T18:20:46.126Z,0.70
2019-03-15T18:23:17.485Z,2.30
2019-03-15T18:25:48.719Z,0.73
2019-03-15T18:28:21.131Z,1.17
2019-03-15T18:30:52.526Z,0.97
2019-03-15T18:33:23.606Z,0.90
2019-03-15T18:35:54.813Z,1.20
2019-03-15T18:38:26.071Z,0.70
2019-03-15T18:40:57.248Z,0.90
2019-03-15T18:43:28.414Z,1.30
2019-03-15T18:45:59.562Z,0.70
2019-03-15T18:48:30.716Z,0.87
2019-03-15T18:51:01.987Z,1.83
2019-03-15T18:53:33.133Z,2.20
2019-03-15T18:56:04.901Z,0.90
2019-03-15T18:58:36.139Z,1.93
2019-03-15T19:01:07.409Z,1.87
2019-03-15T19:03:38.571Z,2.73
2019-03-15T19:06:09.787Z,2.60
2019-03-15T19:08:41.038Z,2.33
2019-03-15T19:11:12.261Z,2.43
2019-03-15T19:13:43.426Z,1.63
2019-03-15T19:16:20.037Z,1.63
2019-03-15T19:18:47.409Z,0.87
2019-03-15T19:21:19.151Z,1.10
2019-03-15T19:23:50.696Z,0.70
2019-03-15T19:26:22.166Z,1.37
2019-03-15T19:28:53.393Z,1.17
2019-03-15T19:31:24.506Z,0.70
2019-03-15T19:33:55.668Z,0.73
2019-03-15T19:36:27.816Z,0.70
2019-03-15T19:38:58.982Z,0.60
2019-03-15T19:41:30.152Z,1.00
2019-03-15T19:44:01.345Z,0.80
2019-03-15T19:46:32.534Z,0.80
2019-03-15T19:49:04.035Z,0.90
2019-03-15T19:51:35.335Z,1.33
2019-03-15T19:54:06.564Z,0.80
2019-03-15T19:56:37.745Z,0.80
2019-03-15T19:59:09.231Z,0.80
2019-03-15T20:01:40.479Z,0.70
2019-03-15T20:04:11.672Z,0.60
2019-03-15T20:06:43.128Z,0.70
2019-03-15T20:09:14.421Z,1.20
2019-03-15T20:11:45.496Z,0.70
2019-03-15T20:14:16.549Z,1.10
2019-03-15T20:16:47.715Z,0.83
2019-03-15T20:19:18.891Z,0.87
2019-03-15T20:21:50.253Z,3.50
2019-03-15T20:24:21.447Z,2.50
2019-03-15T20:26:52.993Z,0.80
2019-03-15T20:29:24.146Z,0.70
2019-03-15T20:31:55.376Z,1.00
2019-03-15T20:34:26.625Z,0.90
2019-03-15T20:36:57.706Z,1.00
2019-03-15T20:39:29.101Z,0.93
2019-03-15T20:42:00.461Z,0.67
2019-03-15T20:44:31.619Z,0.77
2019-03-15T20:47:02.701Z,5.80
2019-03-15T20:49:36.457Z,0.70
2019-03-15T20:52:06.958Z,2.20
2019-03-15T20:54:38.145Z,6.43
2019-03-15T20:57:09.786Z,0.93
2019-03-15T20:59:40.931Z,0.70
2019-03-15T21:02:13.480Z,0.70
2019-03-15T21:04:44.680Z,0.70
2019-03-15T21:07:15.849Z,0.70
2019-03-15T21:09:47.022Z,1.07
2019-03-15T21:12:18.205Z,1.40
2019-03-15T21:14:49.415Z,0.70
2019-03-15T21:17:21.597Z,0.70
2019-03-15T21:19:52.659Z,0.70
2019-03-15T21:22:23.899Z,0.60
2019-03-15T21:24:55.043Z,1.73
2019-03-15T21:27:26.417Z,2.50
2019-03-15T21:29:57.610Z,0.73
2019-03-15T21:32:28.800Z,0.97
2019-03-15T21:34:59.969Z,1.07
2019-03-15T21:37:31.153Z,0.70
2019-03-15T21:40:02.280Z,0.70
2019-03-15T21:42:33.552Z,0.70
2019-03-15T21:45:05.068Z,1.43
2019-03-15T21:47:36.267Z,0.60
2019-03-15T21:50:09.742Z,0.60
2019-03-15T21:52:41.082Z,2.10
2019-03-15T21:55:12.319Z,0.60
2019-03-15T21:57:43.555Z,3.73
2019-03-15T22:00:15.433Z,0.60
2019-03-15T22:02:46.846Z,1.43
2019-03-15T22:05:18.065Z,1.30
2019-03-15T22:07:49.366Z,0.70
2019-03-15T22:10:20.766Z,1.10
2019-03-15T22:12:52.034Z,0.60
2019-03-15T22:15:23.280Z,0.70
2019-03-15T22:17:54.513Z,1.33
2019-03-15T22:20:25.689Z,0.60
2019-03-15T22:22:56.803Z,1.40
2019-03-15T22:25:27.962Z,2.73
2019-03-15T22:27:59.160Z,1.97
2019-03-15T22:30:30.462Z,0.60
2019-03-15T22:33:01.575Z,0.70
2019-03-15T22:35:32.769Z,0.87
2019-03-15T22:38:03.959Z,0.70
2019-03-15T22:40:35.307Z,0.60
2019-03-15T22:43:06.848Z,1.13
2019-03-15T22:45:38.010Z,1.20
2019-03-15T22:48:09.464Z,0.60
2019-03-15T22:50:40.992Z,0.63
2019-03-15T22:53:12.516Z,1.27
2019-03-15T22:55:43.702Z,0.77
2019-03-15T22:58:14.893Z,0.70
2019-03-15T23:00:47.058Z,0.60
2019-03-15T23:03:18.648Z,0.70
2019-03-15T23:05:49.774Z,1.83
2019-03-15T23:08:20.993Z,0.90
2019-03-15T23:10:52.132Z,2.03
2019-03-15T23:13:23.423Z,0.60
2019-03-15T23:15:54.600Z,0.60
2019-03-15T23:18:25.772Z,1.33
2019-03-15T23:20:57.039Z,0.70
2019-03-15T23:23:28.410Z,1.50
2019-03-15T23:25:59.511Z,1.77
2019-03-15T23:28:30.794Z,5.30
2019-03-15T23:31:02.219Z,0.67
2019-03-15T23:33:34.596Z,0.70
2019-03-15T23:36:05.916Z,1.10
2019-03-15T23:38:37.148Z,1.33
2019-03-15T23:41:08.207Z,4.90
2019-03-15T23:43:39.306Z,0.60
2019-03-15T23:46:10.460Z,0.70
2019-03-15T23:48:41.639Z,1.27
2019-03-15T23:51:12.983Z,0.70
2019-03-15T23:53:44.260Z,0.70
2019-03-15T23:56:15.422Z,0.70
2019-03-15T23:58:46.663Z,0.60
